Time;durP1;ratioP1;P1;durP2;ratioP2;P2;SDS_P1;SDS_P2;PMS_P1;PMS_P2;Temp;Humidity;BMP_temperature;BMP_pressure;BME280_temperature;BME280_humidity;BME280_pressure;Samples;Min_cycle;Max_cycle;Signal;HPM_P1;HPM_P2
2020/12/16 00:01:43;;;;;;;25.15;14.18;;;8.40;99.90;;;;;;5031860;28;20132;-59
2020/12/16 00:04:29;;;;;;;27.25;14.52;;;8.40;99.90;;;;;;5031687;28;20485;-59
2020/12/16 00:07:15;;;;;;;26.73;13.52;;;8.30;99.90;;;;;;5032609;28;20398;-60
2020/12/16 00:10:07;;;;;;;26.75;12.95;;;8.30;99.90;;;;;;5032889;28;20120;-60
2020/12/16 00:12:53;;;;;;;;;;;8.30;99.90;;;;;;5032030;28;20033;-60
2020/12/16 00:15:39;;;;;;;22.38;12.75;;;8.30;99.90;;;;;;5030909;28;19912;-59
2020/12/16 00:18:26;;;;;;;24.33;12.35;;;8.30;99.90;;;;;;5031146;28;20046;-60
2020/12/16 00:21:12;;;;;;;24.83;13.65;;;8.20;99.90;;;;;;5032466;28;20029;-61
2020/12/16 00:23:58;;;;;;;28.55;14.77;;;8.20;99.90;;;;;;5032477;28;20045;-60
2020/12/16 00:26:44;;;;;;;27.65;13.40;;;8.20;99.90;;;;;;5016579;28;20041;-61
2020/12/16 00:29:30;;;;;;;30.50;14.38;;;8.10;99.90;;;;;;5002477;28;20065;-60
2020/12/16 00:32:16;;;;;;;28.38;13.68;;;8.10;99.90;;;;;;5032447;28;20079;-60
2020/12/16 00:35:08;;;;;;;29.52;13.95;;;8.10;99.90;;;;;;5032479;28;20513;-60
2020/12/16 00:37:54;;;;;;;;;;;8.10;99.90;;;;;;5017472;28;20033;-60
2020/12/16 00:40:40;;;;;;;76.75;14.75;;;7.90;99.90;;;;;;5031120;28;19920;-60
2020/12/16 00:43:26;;;;;;;95.18;15.07;;;7.90;99.90;;;;;;5031181;28;20029;-60
2020/12/16 00:46:13;;;;;;;89.57;14.95;;;7.80;99.90;;;;;;5016483;28;20053;-60
2020/12/16 00:49:00;;;;;;;79.75;14.05;;;7.90;99.90;;;;;;5031693;28;20046;-61
2020/12/16 00:51:51;;;;;;;65.07;13.60;;;7.90;99.90;;;;;;5031497;28;20026;-61
2020/12/16 00:54:37;;;;;;;102.13;16.95;;;7.90;99.90;;;;;;5030343;28;20402;-59
2020/12/16 00:57:23;;;;;;;76.90;15.45;;;7.90;99.90;;;;;;5030965;28;20041;-60
2020/12/16 01:00:11;;;;;;;89.15;16.00;;;8.10;99.90;;;;;;5031541;28;20038;-60
2020/12/16 01:02:57;;;;;;;111.25;17.08;;;8.20;99.90;;;;;;5017137;28;20026;-60
2020/12/16 01:05:43;;;;;;;56.13;13.30;;;8.30;99.90;;;;;;5030286;28;20037;-60
2020/12/16 01:08:29;;;;;;;69.78;14.32;;;8.40;99.90;;;;;;5031339;28;20470;-60
2020/12/16 01:11:15;;;;;;;110.47;15.43;;;8.40;99.90;;;;;;5031392;28;20257;-60
2020/12/16 01:14:04;;;;;;;138.98;16.08;;;8.50;99.90;;;;;;5032191;28;20036;-60
2020/12/16 01:16:50;;;;;;;134.13;15.23;;;8.50;99.90;;;;;;5031761;28;20053;-60
2020/12/16 01:19:36;;;;;;;117.88;15.77;;;8.50;99.90;;;;;;5031409;28;20108;-60
2020/12/16 01:22:22;;;;;;;99.13;15.18;;;8.50;99.90;;;;;;5030640;28;20439;-60
2020/12/16 01:25:10;;;;;;;44.28;14.18;;;8.40;99.90;;;;;;5032127;28;20040;-60
2020/12/16 01:28:00;;;;;;;49.00;14.77;;;8.40;99.90;;;;;;5016699;28;20459;-60
2020/12/16 01:30:46;;;;;;;40.63;13.40;;;8.40;99.90;;;;;;5031163;28;20128;-60
2020/12/16 01:33:32;;;;;;;46.63;13.98;;;8.60;99.90;;;;;;5035282;28;20034;-61
2020/12/16 01:36:19;;;;;;;43.75;14.35;;;8.60;99.90;;;;;;5020560;28;20029;-59
2020/12/16 01:39:10;;;;;;;42.45;12.85;;;8.50;99.90;;;;;;5034792;28;20041;-59
2020/12/16 01:41:56;;;;;;;66.72;13.63;;;8.40;99.90;;;;;;5020749;28;20045;-60
2020/12/16 01:44:42;;;;;;;87.93;14.48;;;8.60;99.90;;;;;;5034750;28;20068;-60
2020/12/16 01:47:28;;;;;;;60.45;14.68;;;8.70;99.90;;;;;;5033881;28;20108;-60
2020/12/16 01:50:15;;;;;;;66.93;13.43;;;8.80;99.90;;;;;;5020918;28;20033;-60
2020/12/16 01:53:02;;;;;;;53.17;14.38;;;8.70;99.90;;;;;;5019305;28;20517;-60
2020/12/16 01:55:50;;;;;;;48.03;13.95;;;8.50;99.90;;;;;;5020075;28;20036;-60
2020/12/16 01:58:40;;;;;;;47.28;14.82;;;8.50;99.90;;;;;;5035436;28;20049;-60
2020/12/16 02:01:28;;;;;;;78.20;17.40;;;8.60;99.90;;;;;;5034463;28;20033;-60
2020/12/16 02:04:20;;;;;;;56.90;16.50;;;8.60;99.90;;;;;;5020135;28;20064;-60
2020/12/16 02:07:09;;;;;;;69.32;17.52;;;8.50;99.90;;;;;;5033993;28;20455;-60
2020/12/16 02:09:55;;;;;;;115.93;17.33;;;8.60;99.90;;;;;;5033381;28;20030;-60
2020/12/16 02:12:41;;;;;;;96.20;17.45;;;8.50;99.90;;;;;;5034026;28;20128;-60
2020/12/16 02:15:27;;;;;;;98.80;16.85;;;8.60;99.90;;;;;;5034622;28;20041;-59
2020/12/16 02:18:14;;;;;;;134.20;17.45;;;8.60;99.90;;;;;;5033935;28;20038;-59
2020/12/16 02:21:01;;;;;;;120.28;16.52;;;8.50;99.90;;;;;;5032857;28;20494;-59
2020/12/16 02:23:49;;;;;;;105.65;17.85;;;8.50;99.90;;;;;;5034268;28;20038;-60
2020/12/16 02:26:39;;;;;;;120.00;16.15;;;8.40;99.90;;;;;;5019522;28;20041;-59
2020/12/16 02:29:26;;;;;;;67.60;16.02;;;8.60;99.90;;;;;;5034869;28;20038;-59
2020/12/16 02:32:14;;;;;;;105.05;14.57;;;8.60;99.90;;;;;;5020081;28;20052;-59
2020/12/16 02:35:00;;;;;;;126.93;14.77;;;8.60;99.90;;;;;;5032538;28;20037;-59
2020/12/16 02:37:46;;;;;;;98.28;13.18;;;8.50;99.90;;;;;;5033060;28;20038;-59
2020/12/16 02:40:32;;;;;;;104.72;13.90;;;8.50;99.90;;;;;;5034041;28;20033;-59
2020/12/16 02:43:19;;;;;;;80.53;11.88;;;8.50;99.90;;;;;;5033970;28;20092;-60
2020/12/16 02:46:05;;;;;;;102.38;13.57;;;8.60;99.90;;;;;;5034289;28;20046;-60
2020/12/16 02:48:51;;;;;;;72.15;12.15;;;8.60;99.90;;;;;;5034659;28;20491;-60
2020/12/16 02:51:37;;;;;;;75.40;12.45;;;8.60;99.90;;;;;;5034508;28;20030;-60
2020/12/16 02:54:23;;;;;;;64.35;13.23;;;8.80;99.90;;;;;;5033655;28;20529;-60
2020/12/16 02:57:10;;;;;;;47.13;13.27;;;8.80;99.90;;;;;;5019790;28;20099;-60
2020/12/16 02:59:58;;;;;;;46.90;11.77;;;8.80;99.90;;;;;;5032913;28;20386;-60
2020/12/16 03:02:45;;;;;;;62.10;14.18;;;8.80;99.90;;;;;;5019398;28;20041;-60
2020/12/16 03:05:31;;;;;;;55.15;13.30;;;8.80;99.90;;;;;;5033767;28;20041;-60
2020/12/16 03:08:19;;;;;;;55.38;13.73;;;8.70;99.90;;;;;;5019552;28;20128;-60
2020/12/16 03:11:05;;;;;;;51.05;13.20;;;8.80;99.90;;;;;;5032051;28;20180;-61
2020/12/16 03:13:51;;;;;;;56.67;13.30;;;8.80;99.90;;;;;;5019300;28;20482;-61
2020/12/16 03:16:37;;;;;;;57.20;14.68;;;8.90;99.90;;;;;;5033505;28;20398;-61
2020/12/16 03:19:23;;;;;;;48.47;14.05;;;8.80;99.90;;;;;;5032947;28;20049;-60
2020/12/16 03:22:09;;;;;;;53.80;13.43;;;8.80;99.90;;;;;;5032491;28;20045;-60
2020/12/16 03:24:56;;;;;;;59.78;15.35;;;8.90;99.90;;;;;;5033640;28;20048;-60
2020/12/16 03:27:42;;;;;;;58.97;14.75;;;9.00;99.90;;;;;;5032908;28;20033;-60
2020/12/16 03:30:28;;;;;;;61.20;14.60;;;8.90;99.90;;;;;;5032021;28;20041;-61
2020/12/16 03:33:14;;;;;;;68.50;16.88;;;8.90;99.90;;;;;;5032036;28;20617;-61
2020/12/16 03:36:00;;;;;;;56.10;14.38;;;8.80;99.90;;;;;;5031865;28;20490;-60
2020/12/16 03:38:48;;;;;;;56.90;13.50;;;8.70;99.90;;;;;;5031688;28;20032;-60
2020/12/16 03:41:34;;;;;;;52.33;14.68;;;8.70;99.90;;;;;;5018878;28;20498;-61
2020/12/16 03:44:20;;;;;;;55.05;15.35;;;8.70;99.90;;;;;;5032699;28;20064;-59
2020/12/16 03:47:06;;;;;;;64.70;13.60;;;8.60;99.90;;;;;;5032658;28;20040;-59
2020/12/16 03:49:52;;;;;;;134.65;16.33;;;8.50;99.90;;;;;;5032693;28;20041;-60
2020/12/16 03:52:38;;;;;;;59.70;13.98;;;8.60;99.90;;;;;;5017289;28;20033;-59
2020/12/16 03:55:24;;;;;;;73.10;15.40;;;8.60;99.90;;;;;;5032186;28;20410;-60
2020/12/16 03:58:10;;;;;;;84.65;16.27;;;8.60;99.90;;;;;;5024442;28;20069;-59
2020/12/16 04:00:56;;;;;;;83.80;15.13;;;8.60;99.90;;;;;;5031234;28;20033;-59
2020/12/16 04:03:42;;;;;;;62.67;13.82;;;8.70;99.90;;;;;;5032235;28;20533;-59
2020/12/16 04:06:29;;;;;;;55.97;14.32;;;8.60;99.90;;;;;;5031485;28;20410;-60
2020/12/16 04:09:15;;;;;;;52.03;14.25;;;8.50;99.90;;;;;;5031674;28;20037;-59
2020/12/16 04:12:01;;;;;;;48.78;13.98;;;8.40;99.90;;;;;;5030244;28;20037;-61
2020/12/16 04:14:46;;;;;;;48.28;13.95;;;8.30;99.90;;;;;;5031769;28;20053;-60
2020/12/16 04:17:34;;;;;;;48.15;14.23;;;8.20;99.90;;;;;;5031897;28;20036;-60
2020/12/16 04:20:20;;;;;;;46.85;13.65;;;8.20;99.90;;;;;;5031498;28;20087;-60
2020/12/16 04:23:06;;;;;;;47.58;14.18;;;8.10;99.90;;;;;;5031260;28;20831;-60
2020/12/16 04:25:52;;;;;;;45.30;14.45;;;8.10;99.90;;;;;;5032666;28;20419;-60
2020/12/16 04:28:38;;;;;;;56.05;16.10;;;8.00;99.90;;;;;;5032076;28;20029;-60
2020/12/16 04:31:24;;;;;;;46.70;14.85;;;8.00;99.90;;;;;;5030908;28;20029;-60
2020/12/16 04:34:10;;;;;;;45.38;15.98;;;8.10;99.90;;;;;;5016742;28;20046;-59
2020/12/16 04:36:56;;;;;;;45.75;15.50;;;8.10;99.90;;;;;;5031295;28;20556;-60
2020/12/16 04:39:42;;;;;;;57.53;14.50;;;8.20;99.90;;;;;;5032297;28;20053;-60
2020/12/16 04:42:29;;;;;;;44.85;14.45;;;8.20;99.90;;;;;;5030609;28;20183;-57
2020/12/16 04:45:15;;;;;;;51.38;13.82;;;8.20;99.90;;;;;;5032367;28;20111;-60
2020/12/16 04:48:01;;;;;;;39.97;12.82;;;8.30;99.90;;;;;;5030576;28;20116;-60
2020/12/16 04:50:47;;;;;;;46.83;14.25;;;8.20;99.90;;;;;;5031361;28;20043;-59
2020/12/16 04:53:36;;;;;;;47.15;14.02;;;8.20;99.90;;;;;;5031623;28;20115;-60
2020/12/16 04:56:23;;;;;;;36.00;13.00;;;8.20;99.90;;;;;;5016944;28;20048;-59
2020/12/16 04:59:09;;;;;;;38.25;12.43;;;8.20;99.90;;;;;;5029860;28;20537;-60
2020/12/16 05:01:55;;;;;;;38.83;13.10;;;8.30;99.90;;;;;;5030802;28;20025;-60
2020/12/16 05:04:42;;;;;;;35.20;12.23;;;8.30;99.90;;;;;;5030840;28;20510;-59
2020/12/16 05:07:29;;;;;;;34.15;12.38;;;8.30;99.90;;;;;;5016904;28;20033;-61
2020/12/16 05:10:36;;;;;;;37.33;12.70;;;8.30;99.90;;;;;;5030668;28;20052;-61
2020/12/16 05:13:26;;;;;;;36.85;11.57;;;8.30;99.90;;;;;;5030365;28;20099;-60
2020/12/16 05:16:12;;;;;;;37.85;12.80;;;8.30;99.90;;;;;;5029739;28;20509;-61
2020/12/16 05:18:58;;;;;;;42.65;13.32;;;8.50;99.90;;;;;;5012379;28;20037;-61
2020/12/16 05:21:44;;;;;;;44.25;13.75;;;8.50;99.90;;;;;;5030277;28;20040;-62
2020/12/16 05:24:30;;;;;;;38.70;11.88;;;8.50;99.90;;;;;;5028725;28;20038;-61
2020/12/16 05:27:28;;;;;;;37.47;12.00;;;8.50;99.90;;;;;;5015438;28;20041;-61
2020/12/16 05:30:14;;;;;;;41.90;14.18;;;8.50;99.90;;;;;;5029957;28;20037;-61
2020/12/16 05:33:04;;;;;;;40.30;11.80;;;8.40;99.90;;;;;;5029838;28;20605;-59
2020/12/16 05:35:53;;;;;;;36.88;12.32;;;8.40;99.90;;;;;;5029252;28;20064;-60
2020/12/16 05:38:52;;;;;;;39.38;12.65;;;8.30;99.90;;;;;;5029601;28;20450;-61
2020/12/16 05:41:39;;;;;;;37.53;12.00;;;8.20;99.90;;;;;;5031565;28;20034;-62
2020/12/16 05:44:25;;;;;;;39.17;11.80;;;8.20;99.90;;;;;;5030109;28;20057;-62
2020/12/16 05:47:11;;;;;;;42.42;12.63;;;8.20;99.90;;;;;;5029906;28;20061;-62
2020/12/16 05:49:57;;;;;;;43.38;13.20;;;8.20;99.90;;;;;;5028354;28;20455;-62
2020/12/16 05:52:45;;;;;;;37.22;12.18;;;8.20;99.90;;;;;;5029843;28;20080;-61
2020/12/16 05:55:31;;;;;;;36.35;12.13;;;8.20;99.90;;;;;;5031629;28;20514;-62
2020/12/16 05:58:20;;;;;;;36.28;12.52;;;8.10;99.90;;;;;;5030559;28;20068;-62
2020/12/16 06:01:07;;;;;;;35.33;11.63;;;8.10;99.90;;;;;;5030212;28;20466;-61
2020/12/16 06:03:53;;;;;;;32.20;11.52;;;8.10;99.90;;;;;;5030341;28;20034;-62
2020/12/16 06:06:40;;;;;;;35.92;11.32;;;8.20;99.90;;;;;;5030012;28;20045;-61
2020/12/16 06:09:26;;;;;;;36.30;12.27;;;8.10;99.90;;;;;;5016997;28;20050;-61
2020/12/16 06:12:15;;;;;;;29.83;11.00;;;8.10;99.90;;;;;;5029227;28;20128;-61
2020/12/16 06:15:14;;;;;;;30.75;11.18;;;8.10;99.90;;;;;;5030670;28;20033;-61
2020/12/16 06:18:03;;;;;;;34.65;11.43;;;8.10;99.90;;;;;;5032249;28;20033;-61
2020/12/16 06:20:49;;;;;;;32.78;11.73;;;8.00;99.90;;;;;;5032913;28;20041;-62
2020/12/16 06:23:40;;;;;;;37.58;12.25;;;8.00;99.90;;;;;;5033526;28;20040;-62
2020/12/16 06:26:31;;;;;;;42.33;13.17;;;8.10;99.90;;;;;;5033204;28;20402;-61
2020/12/16 06:29:17;;;;;;;46.67;13.98;;;8.00;99.90;;;;;;5019942;28;20299;-62
2020/12/16 06:32:10;;;;;;;39.45;13.50;;;7.90;99.90;;;;;;5018440;28;20045;-62
2020/12/16 06:34:59;;;;;;;46.28;15.20;;;7.80;99.90;;;;;;5019717;28;20036;-63
2020/12/16 06:37:46;;;;;;;58.35;18.88;;;7.80;99.90;;;;;;5018681;28;20045;-63
2020/12/16 06:40:55;;;;;;;35.50;12.98;;;7.80;99.90;;;;;;5033092;28;20568;-63
2020/12/16 06:43:42;;;;;;;41.17;13.00;;;7.90;99.90;;;;;;5032829;28;20045;-63
2020/12/16 06:46:32;;;;;;;39.00;12.80;;;7.80;99.90;;;;;;5031980;28;20041;-64
2020/12/16 06:49:21;;;;;;;50.53;13.23;;;7.90;99.90;;;;;;5032580;28;20080;-63
2020/12/16 06:52:13;;;;;;;55.08;17.40;;;8.00;99.90;;;;;;5031885;28;20060;-63
2020/12/16 06:55:07;;;;;;;41.58;13.23;;;8.00;99.90;;;;;;5017614;28;20038;-63
2020/12/16 06:57:53;;;;;;;49.28;16.27;;;7.90;99.90;;;;;;5034065;28;20041;-62
2020/12/16 07:00:39;;;;;;;42.60;13.40;;;8.10;99.90;;;;;;5033676;28;20111;-63
2020/12/16 07:03:34;;;;;;;39.30;13.02;;;8.00;99.90;;;;;;5033694;28;20041;-63
2020/12/16 07:06:29;;;;;;;35.85;13.63;;;8.00;99.90;;;;;;5019320;28;20044;-63
2020/12/16 07:09:23;;;;;;;34.08;12.55;;;8.10;99.90;;;;;;5032310;28;20042;-63
2020/12/16 07:12:27;;;;;;;37.67;12.73;;;7.90;99.90;;;;;;5031637;28;20037;-63
2020/12/16 07:15:13;;;;;;;33.25;13.27;;;7.90;99.90;;;;;;5020624;28;20124;-63
2020/12/16 07:18:39;;;;;;;36.53;12.93;;;8.10;99.90;;;;;;5033259;28;20037;-63
2020/12/16 07:21:28;;;;;;;34.42;13.02;;;8.10;99.90;;;;;;5032903;28;20041;-63
2020/12/16 07:24:16;;;;;;;32.88;12.30;;;8.20;99.90;;;;;;5032975;28;20033;-63
2020/12/16 07:27:03;;;;;;;31.67;10.68;;;8.20;99.90;;;;;;5017346;28;20045;-63
2020/12/16 07:29:57;;;;;;;36.92;13.05;;;8.10;99.90;;;;;;5018039;28;20103;-63
2020/12/16 07:32:44;;;;;;;35.67;14.40;;;8.10;99.90;;;;;;4992801;28;20045;-63
2020/12/16 07:35:46;;;;;;;50.38;19.88;;;8.20;99.90;;;;;;5032564;28;20037;-62
2020/12/16 07:38:32;;;;;;;77.35;32.63;;;8.40;99.90;;;;;;5031678;28;20112;-63
2020/12/16 07:41:29;;;;;;;42.55;15.48;;;8.60;99.90;;;;;;5031091;28;20026;-63
2020/12/16 07:44:16;;;;;;;44.50;17.63;;;8.50;99.90;;;;;;5011609;28;20058;-64
2020/12/16 07:47:03;;;;;;;37.25;14.38;;;8.50;99.90;;;;;;4996983;28;20045;-63
2020/12/16 07:49:49;;;;;;;35.95;12.27;;;8.50;99.90;;;;;;4997352;28;20044;-63
2020/12/16 07:52:35;;;;;;;58.13;23.70;;;8.50;99.90;;;;;;5011097;28;20025;-63
2020/12/16 07:55:25;;;;;;;68.20;31.10;;;8.50;99.90;;;;;;5011258;28;20598;-64
2020/12/16 07:58:11;;;;;;;38.25;12.63;;;8.40;99.90;;;;;;5012004;28;20073;-62
2020/12/16 08:01:18;;;;;;;27.30;11.45;;;8.40;99.90;;;;;;5012173;28;20072;-64
2020/12/16 08:04:05;;;;;;;33.75;11.13;;;8.30;99.90;;;;;;4997558;28;20030;-63
2020/12/16 08:06:51;;;;;;;33.33;12.18;;;8.30;99.90;;;;;;5011444;28;20026;-63
2020/12/16 08:09:37;;;;;;;32.80;11.90;;;8.20;99.90;;;;;;4997392;28;20042;-63
2020/12/16 08:12:25;;;;;;;37.95;13.95;;;8.40;99.90;;;;;;5018166;28;20091;-63
2020/12/16 08:15:19;;;;;;;43.15;14.63;;;8.70;99.90;;;;;;5031623;28;20065;-63
2020/12/16 08:18:06;;;;;;;40.90;15.07;;;9.00;99.90;;;;;;5031340;28;20116;-63
2020/12/16 08:20:52;;;;;;;42.97;16.20;;;8.90;99.90;;;;;;5017645;28;20048;-63
2020/12/16 08:23:39;;;;;;;44.08;15.23;;;8.80;99.90;;;;;;5032126;28;20041;-63
2020/12/16 08:26:26;;;;;;;45.00;15.90;;;8.60;99.90;;;;;;5030965;28;20094;-63
2020/12/16 08:29:12;;;;;;;37.60;14.15;;;8.80;99.90;;;;;;5030893;28;20166;-62
2020/12/16 08:31:58;;;;;;;52.88;18.65;;;8.90;99.90;;;;;;5030679;28;20073;-64
2020/12/16 08:34:49;;;;;;;42.05;14.43;;;8.90;99.90;;;;;;5031067;28;20049;-63
2020/12/16 08:37:39;;;;;;;34.17;12.85;;;9.00;99.90;;;;;;5017960;28;20038;-63
2020/12/16 08:40:26;;;;;;;36.72;14.13;;;9.00;99.90;;;;;;5017336;28;20041;-63
2020/12/16 08:43:42;;;;;;;35.47;13.10;;;9.00;99.90;;;;;;5031204;28;20056;-63
2020/12/16 08:46:28;;;;;;;37.80;13.52;;;9.10;99.90;;;;;;5025961;28;20132;-63
2020/12/16 08:49:14;;;;;;;36.33;13.48;;;9.00;99.90;;;;;;5017132;28;20110;-63
2020/12/16 08:52:00;;;;;;;33.55;13.70;;;9.30;99.90;;;;;;5016591;28;20041;-63
2020/12/16 08:54:47;;;;;;;33.35;12.70;;;9.60;99.90;;;;;;5030707;28;20498;-64
2020/12/16 08:57:33;;;;;;;31.85;12.80;;;9.60;99.90;;;;;;5030639;28;20072;-63
2020/12/16 09:00:26;;;;;;;27.60;12.52;;;9.70;99.90;;;;;;5031084;28;20048;-63
2020/12/16 09:03:13;;;;;;;33.70;12.65;;;9.60;99.90;;;;;;5016164;28;20183;-63
2020/12/16 09:06:01;;;;;;;30.33;12.93;;;9.50;99.90;;;;;;5017355;28;20061;-63
2020/12/16 09:08:48;;;;;;;37.50;13.25;;;9.80;99.90;;;;;;5029450;28;20068;-63
2020/12/16 09:11:34;;;;;;;35.67;12.82;;;9.80;99.90;;;;;;5030243;28;20168;-63
2020/12/16 09:14:21;;;;;;;32.17;12.30;;;9.60;99.90;;;;;;5030102;28;20398;-64
2020/12/16 09:17:08;;;;;;;38.95;13.00;;;9.60;99.90;;;;;;5031054;28;20441;-64
2020/12/16 09:19:54;;;;;;;33.25;12.02;;;9.60;99.90;;;;;;5016125;28;20128;-63
2020/12/16 09:22:40;;;;;;;31.60;13.05;;;9.50;99.90;;;;;;5031003;28;20033;-63
2020/12/16 09:25:27;;;;;;;33.97;12.77;;;9.60;99.90;;;;;;5031201;28;20434;-64
2020/12/16 09:28:13;;;;;;;35.97;13.35;;;9.70;99.90;;;;;;5029310;28;20033;-64
2020/12/16 09:31:12;;;;;;;28.48;12.35;;;9.40;99.90;;;;;;5029643;28;20120;-63
2020/12/16 09:33:59;;;;;;;30.33;12.18;;;9.70;99.90;;;;;;5031905;28;20467;-63
2020/12/16 09:36:46;;;;;;;31.83;12.52;;;9.70;99.90;;;;;;5030333;28;20543;-63
2020/12/16 09:39:32;;;;;;;34.30;14.20;;;9.60;99.90;;;;;;5016573;28;20034;-63
2020/12/16 09:42:19;;;;;;;31.85;12.27;;;9.70;99.90;;;;;;5031084;28;20025;-63
2020/12/16 09:45:08;;;;;;;32.75;14.48;;;10.30;99.90;;;;;;5029212;28;20053;-63
2020/12/16 09:47:54;;;;;;;31.60;13.25;;;10.70;99.90;;;;;;5030537;28;20041;-63
2020/12/16 09:50:41;;;;;;;27.65;12.63;;;10.80;99.90;;;;;;5029390;28;20029;-63
2020/12/16 09:53:37;;;;;;;23.83;11.73;;;11.40;99.90;;;;;;5034486;28;20049;-63
2020/12/16 09:56:27;;;;;;;29.75;11.32;;;11.90;99.90;;;;;;5020669;28;20039;-63
2020/12/16 09:59:20;;;;;;;23.60;10.95;;;12.80;99.90;;;;;;5018845;28;20413;-63
2020/12/16 10:02:06;;;;;;;24.42;10.52;;;13.50;99.90;;;;;;5019702;28;20045;-63
2020/12/16 10:04:52;;;;;;;21.15;11.05;;;13.40;99.90;;;;;;5033247;28;20030;-63
2020/12/16 10:07:38;;;;;;;20.58;10.20;;;15.20;99.90;;;;;;5033917;28;20431;-63
2020/12/16 10:10:27;;;;;;;17.92;9.05;;;16.80;99.90;;;;;;5033780;28;20474;-63
2020/12/16 10:13:14;;;;;;;25.35;11.25;;;16.40;99.90;;;;;;5033244;28;20105;-62
2020/12/16 10:16:00;;;;;;;18.20;8.90;;;16.30;99.90;;;;;;5032829;28;20517;-62
2020/12/16 10:18:47;;;;;;;17.48;8.98;;;17.50;99.90;;;;;;5033435;28;20030;-62
2020/12/16 10:21:33;;;;;;;14.80;8.38;;;19.60;99.90;;;;;;5028616;28;20472;-63
2020/12/16 10:24:19;;;;;;;18.35;8.43;;;19.80;98.80;;;;;;5032885;28;20055;-64
2020/12/16 10:27:05;;;;;;;14.73;7.63;;;20.40;98.40;;;;;;5033366;28;20116;-63
2020/12/16 10:29:51;;;;;;;15.48;8.68;;;21.10;95.70;;;;;;5033119;28;20052;-63
2020/12/16 10:32:39;;;;;;;15.88;8.50;;;19.70;97.00;;;;;;5032978;28;20045;-63
2020/12/16 10:35:25;;;;;;;15.80;9.23;;;20.50;96.90;;;;;;5033646;28;20040;-64
2020/12/16 10:38:11;;;;;;;21.00;11.55;;;20.80;95.00;;;;;;5032774;28;20069;-63
2020/12/16 10:40:57;;;;;;;22.50;10.63;;;19.40;99.20;;;;;;5033908;28;20064;-63
2020/12/16 10:43:43;;;;;;;14.38;8.13;;;18.50;98.80;;;;;;5032434;28;20079;-63
2020/12/16 10:46:29;;;;;;;14.90;8.05;;;16.60;99.90;;;;;;5033671;28;20052;-63
2020/12/16 10:49:16;;;;;;;15.00;7.70;;;16.50;99.90;;;;;;5033791;28;20401;-64
2020/12/16 10:52:08;;;;;;;12.35;6.63;;;15.00;99.90;;;;;;5034372;28;20180;-64
2020/12/16 10:54:55;;;;;;;10.65;6.43;;;14.70;99.90;;;;;;5031832;28;20041;-64
2020/12/16 10:57:41;;;;;;;7.47;4.70;;;15.20;99.90;;;;;;5033233;28;20030;-64
2020/12/16 11:00:27;;;;;;;8.35;5.43;;;15.60;99.90;;;;;;5033741;28;21363;-63
2020/12/16 11:03:13;;;;;;;7.75;5.03;;;16.90;99.90;;;;;;5032562;28;20045;-64
2020/12/16 11:05:59;;;;;;;9.40;5.28;;;17.40;99.90;;;;;;5032410;28;20029;-63
2020/12/16 11:08:45;;;;;;;9.05;4.93;;;15.90;99.90;;;;;;5031913;28;20670;-63
2020/12/16 11:11:32;;;;;;;10.00;5.28;;;15.60;99.90;;;;;;5004062;28;20071;-65
2020/12/16 11:14:18;;;;;;;8.50;4.57;;;16.30;99.90;;;;;;5032906;28;20128;-63
2020/12/16 11:17:05;;;;;;;19.27;11.98;;;16.50;99.90;;;;;;5032475;28;20041;-63
2020/12/16 11:19:52;;;;;;;7.22;4.55;;;17.20;99.90;;;;;;5032486;28;20029;-65
2020/12/16 11:22:38;;;;;;;7.07;4.50;;;18.50;99.90;;;;;;5032761;28;20048;-64
2020/12/16 11:25:24;;;;;;;6.75;4.32;;;18.00;99.90;;;;;;5032475;28;20171;-64
2020/12/16 11:28:13;;;;;;;8.98;5.00;;;17.40;99.90;;;;;;5017826;28;20025;-64
2020/12/16 11:31:01;;;;;;;11.88;4.93;;;19.10;98.30;;;;;;5031724;28;20041;-63
2020/12/16 11:33:47;;;;;;;7.35;4.93;;;20.30;95.10;;;;;;5031417;28;20034;-63
2020/12/16 11:36:39;;;;;;;9.30;4.78;;;21.20;93.50;;;;;;5031174;28;20029;-63
2020/12/16 11:39:26;;;;;;;8.63;4.60;;;20.50;93.90;;;;;;5032660;28;20040;-65
2020/12/16 11:42:12;;;;;;;8.23;5.30;;;18.90;95.70;;;;;;5017314;28;20049;-63
2020/12/16 11:44:58;;;;;;;8.75;5.50;;;16.80;99.90;;;;;;5030893;28;20061;-64
2020/12/16 11:47:44;;;;;;;14.38;8.48;;;16.70;99.90;;;;;;5032040;28;20474;-64
2020/12/16 11:50:30;;;;;;;11.05;5.15;;;16.80;99.90;;;;;;5031453;28;20498;-63
2020/12/16 11:53:16;;;;;;;7.55;4.43;;;17.50;99.90;;;;;;5032660;28;20061;-63
2020/12/16 11:56:03;;;;;;;7.47;4.20;;;18.70;97.90;;;;;;5018158;28;20045;-64
2020/12/16 11:58:51;;;;;;;6.97;4.22;;;18.60;97.40;;;;;;5031861;28;20490;-63
2020/12/16 12:01:38;;;;;;;8.60;3.90;;;17.90;98.10;;;;;;5031008;28;20025;-64
2020/12/16 12:04:24;;;;;;;6.68;4.43;;;16.30;99.90;;;;;;5032168;28;20038;-64
2020/12/16 12:07:11;;;;;;;6.82;3.92;;;17.90;99.90;;;;;;5017695;28;20065;-63
2020/12/16 12:09:57;;;;;;;6.38;4.15;;;16.80;99.90;;;;;;5017847;28;20036;-62
2020/12/16 12:12:43;;;;;;;6.30;3.70;;;17.20;99.90;;;;;;5017582;28;20091;-63
2020/12/16 12:15:30;;;;;;;7.03;4.50;;;17.30;99.90;;;;;;5030152;28;20041;-62
2020/12/16 12:18:16;;;;;;;6.90;3.78;;;17.20;99.90;;;;;;5031861;28;20528;-63
2020/12/16 12:21:02;;;;;;;10.65;4.82;;;17.40;99.90;;;;;;5030188;28;20505;-63
2020/12/16 12:23:51;;;;;;;11.68;4.97;;;17.70;99.70;;;;;;5030474;28;20041;-62
2020/12/16 12:26:37;;;;;;;7.63;4.25;;;17.50;99.90;;;;;;5028320;28;20095;-62
2020/12/16 12:29:23;;;;;;;7.68;4.10;;;17.50;99.90;;;;;;5031250;28;20409;-62
2020/12/16 12:32:10;;;;;;;6.13;3.70;;;17.60;99.70;;;;;;5030537;28;20039;-63
2020/12/16 12:34:56;;;;;;;7.75;4.95;;;16.90;99.90;;;;;;5029883;28;20477;-63
2020/12/16 12:37:42;;;;;;;7.75;4.60;;;16.10;99.90;;;;;;5031750;28;20496;-63
2020/12/16 12:40:28;;;;;;;6.00;3.60;;;16.80;99.90;;;;;;5030562;28;20029;-64
2020/12/16 12:43:14;;;;;;;6.00;3.70;;;17.50;99.80;;;;;;5029846;28;20048;-66
2020/12/16 12:46:00;;;;;;;6.55;3.95;;;17.80;99.40;;;;;;5031230;28;20513;-63
2020/12/16 12:48:46;;;;;;;6.28;3.63;;;18.10;98.60;;;;;;5015824;28;20037;-63
2020/12/16 12:51:32;;;;;;;5.78;3.50;;;17.30;99.40;;;;;;5030984;28;20120;-62
2020/12/16 12:54:18;;;;;;;8.13;4.78;;;17.50;99.50;;;;;;5031140;28;20073;-63
2020/12/16 12:57:04;;;;;;;6.43;3.95;;;16.90;99.90;;;;;;5031926;28;20065;-63
2020/12/16 12:59:54;;;;;;;6.85;3.95;;;16.50;99.90;;;;;;5030666;28;20033;-63
2020/12/16 13:02:41;;;;;;;7.85;4.10;;;17.30;99.90;;;;;;5030935;28;20095;-63
2020/12/16 13:05:27;;;;;;;7.82;3.90;;;17.00;99.90;;;;;;5030336;28;20485;-64
2020/12/16 13:08:13;;;;;;;6.10;3.53;;;17.30;99.90;;;;;;5031038;28;20048;-63
2020/12/16 13:10:59;;;;;;;6.72;3.45;;;17.90;99.10;;;;;;5030760;28;20060;-63
2020/12/16 13:13:45;;;;;;;7.55;3.55;;;17.90;99.10;;;;;;5031190;28;20042;-63
2020/12/16 13:16:31;;;;;;;7.53;3.58;;;16.90;99.90;;;;;;5030627;28;20033;-63
2020/12/16 13:19:17;;;;;;;9.85;5.32;;;16.30;99.90;;;;;;5029659;28;20129;-63
2020/12/16 13:22:04;;;;;;;7.93;3.63;;;17.30;99.90;;;;;;5030861;28;20525;-63
2020/12/16 13:24:51;;;;;;;9.20;3.97;;;16.70;99.90;;;;;;5030177;28;20053;-63
2020/12/16 13:27:37;;;;;;;6.10;3.70;;;17.10;99.90;;;;;;5034834;28;20128;-62
2020/12/16 13:30:23;;;;;;;7.75;3.30;;;17.30;99.60;;;;;;5033601;28;20044;-63
2020/12/16 13:33:09;;;;;;;6.95;3.42;;;17.60;99.30;;;;;;5033851;28;20113;-62
2020/12/16 13:35:56;;;;;;;8.25;3.95;;;17.20;99.90;;;;;;5019363;28;20037;-63
2020/12/16 13:38:42;;;;;;;6.47;3.53;;;17.30;99.90;;;;;;5019581;28;20422;-63
2020/12/16 13:41:28;;;;;;;4.97;3.20;;;17.10;99.90;;;;;;5033711;28;20037;-62
2020/12/16 13:44:16;;;;;;;7.45;3.55;;;17.00;99.90;;;;;;5013376;28;20139;-62
2020/12/16 13:47:02;;;;;;;9.52;4.55;;;16.60;99.90;;;;;;5014544;28;20588;-63
2020/12/16 13:49:49;;;;;;;6.97;4.30;;;16.20;99.90;;;;;;5016233;28;20041;-61
2020/12/16 13:52:37;;;;;;;6.70;4.05;;;15.20;99.90;;;;;;5014528;28;20109;-62
2020/12/16 13:55:23;;;;;;;7.07;3.90;;;14.80;99.90;;;;;;5013765;28;20045;-59
2020/12/16 13:58:12;;;;;;;7.13;4.25;;;14.50;99.90;;;;;;5013667;28;20197;-59
2020/12/16 14:01:01;;;;;;;8.60;4.35;;;14.90;99.90;;;;;;5016048;28;20172;-62
2020/12/16 14:03:53;;;;;;;7.95;4.75;;;15.10;99.90;;;;;;4991459;28;20048;-62
2020/12/16 14:06:43;;;;;;;5.70;3.58;;;14.70;99.90;;;;;;5037530;28;20493;-62
2020/12/16 14:09:29;;;;;;;7.32;3.67;;;14.80;99.90;;;;;;5054119;28;20379;-62
2020/12/16 14:12:18;;;;;;;9.90;4.10;;;14.60;99.90;;;;;;5054309;28;20405;-62
2020/12/16 14:15:05;;;;;;;7.57;4.40;;;14.20;99.90;;;;;;5054495;28;20040;-61
2020/12/16 14:17:51;;;;;;;5.97;3.60;;;13.90;99.90;;;;;;5054856;28;20061;-63
2020/12/16 14:20:37;;;;;;;10.73;4.47;;;13.80;99.90;;;;;;5039865;28;20045;-62
2020/12/16 14:23:23;;;;;;;9.20;4.75;;;13.50;99.90;;;;;;5053985;28;20025;-61